Thursday, July 19, 2018, 1:55 AM EDT
Back to Local

KFZY, Fulton Oswego County Airport

Location: Fulton, NY, United States Lat: 43.35
Local Time: 1:55 AM EDT ( 5:55 GMT) Lon: -76.383
Time Zone: US/Eastern Elev: 475 ft

Show me the last for .
Show Decoded

2018-07-19 00:54 METAR KFZY 190454Z AUTO 00000KT 10SM CLR 11/08 A3006 RMK AO2 SLP179 T01060083
                 402440106 =
2018-07-18 23:54 METAR KFZY 190354Z AUTO 00000KT 10SM CLR 11/08 A3006 RMK AO2 SLP178 T01110083 =
2018-07-18 22:54 METAR KFZY 190254Z AUTO 00000KT 10SM CLR 13/09 A3005 RMK AO2 SLP176 T01330089
                 51007 =
2018-07-18 21:54 METAR KFZY 190154Z AUTO 00000KT 10SM CLR 14/08 A3005 RMK AO2 SLP176 T01440083 =
2018-07-18 20:54 METAR KFZY 190054Z AUTO 30003KT 10SM CLR 17/08 A3004 RMK AO2 SLP170 T01720083 =
2018-07-18 19:54 METAR KFZY 182354Z AUTO 30006KT 10SM CLR 20/07 A3003 RMK AO2 SLP168 T02000072
                 10244 20200 56000 =
2018-07-18 18:54 METAR KFZY 182254Z AUTO 28008KT 10SM CLR 22/06 A3003 RMK AO2 SLP168 T02170061 =
2018-07-18 17:54 METAR KFZY 182154Z AUTO 32007KT 10SM CLR 23/06 A3003 RMK AO2 SLP167 T02280061 =
2018-07-18 16:54 METAR KFZY 182054Z AUTO 32009G15KT 10SM CLR 23/06 A3003 RMK AO2 SLP168 T02330056
                 58004 =
2018-07-18 15:54 METAR KFZY 181954Z AUTO 33011G14KT 10SM CLR 24/04 A3004 RMK AO2 SLP169 T02390039
                 =
2018-07-18 14:54 METAR KFZY 181854Z AUTO 33010G18KT 10SM CLR 23/05 A3005 RMK AO2 SLP172 T02280050
                 =
2018-07-18 13:54 METAR KFZY 181754Z AUTO 30009G15KT 10SM CLR 23/06 A3005 RMK AO2 SLP172 T02280056
                 10233 20183 58002 =
2018-07-18 12:54 METAR KFZY 181654Z AUTO 35009G16KT 320V030 10SM CLR 23/06 A3006 RMK AO2 SLP175
                 T02280061 =
2018-07-18 11:54 METAR KFZY 181554Z AUTO 34006G16KT 10SM CLR 22/06 A3005 RMK AO2 SLP174 T02220061
                 =
2018-07-18 10:54 METAR KFZY 181454Z AUTO 03009KT 10SM CLR 22/06 A3005 RMK AO2 SLP174 T02220056
                 51006 =
2018-07-18 09:54 METAR KFZY 181354Z AUTO 36011G16KT 10SM CLR 21/07 A3004 RMK AO2 SLP171 T02110072
                 =
2018-07-18 08:54 METAR KFZY 181254Z AUTO 36008KT 10SM CLR 20/10 A3005 RMK AO2 SLP171 T02000100 =
2018-07-18 07:54 METAR KFZY 181154Z AUTO 02012KT 10SM FEW075 18/11 A3003 RMK AO2 SLP168 T01830106
                 10211 20167 51023 =
2018-07-18 06:54 METAR KFZY 181054Z AUTO 02006KT 10SM FEW070 18/11 A3002 RMK AO2 SLP161 T01780111
                 =
2018-07-18 05:54 METAR KFZY 180954Z AUTO 02008KT 10SM FEW070 SCT090 17/11 A2999 RMK AO2 SLP152
                 T01720111 =
2018-07-18 04:54 METAR KFZY 180854Z AUTO 02009KT 10SM CLR 18/11 A2996 RMK AO2 SLP144 T01830111
                 53018 =
2018-07-18 03:54 METAR KFZY 180754Z AUTO 01008G17KT 10SM SCT070 BKN095 19/11 A2995 RMK AO2 SLP138
                 T01940106 =
2018-07-18 02:54 METAR KFZY 180654Z AUTO 02010KT 10SM FEW100 20/11 A2993 RMK AO2 SLP131 T02000111
                 =

Support USWX by starting your Amazon purchase here.